Airfield :







YOU CAN JOIN US ON...

 
LOGIN :

Register | Disclaimer

   EN    FR    IT 

 









Legend :    VFR   Marginal VFR   IFR   Intensive IFR   Very Intensive IFR
Visi :
Ceiling :
>= 8 km
>= 3000ft
5 to 8 km
1000 to 3000 ft
1500m to 5 km
500 to 1000 ft
800 to 1500m
200 to 500 ft
< 800m
< 200 ft
Symbols :   Thunderstorms  Fog  Heavy snow  Heavy precipitations  Wind > 20 kt







- Airport Elevation : 1166 ft


KMPV - Edward F Knapp State

CURRENT METAR :
  • 261951Z AUTO 33009KT 10SM CLR M02/M16 A3029 RMK AO2 SLP275 T10171161

EXPIRED METARs :
  • 261851Z AUTO 30012KT 10SM CLR M02/M17 A3030 RMK AO2 SLP279 T10221167
  • 261751Z AUTO 31012G17KT 10SM CLR M03/M15 A3030 RMK AO2 SLP281 T10281150 11028 21083 58005

TAF KMPV
Valid from the 26 at 18:00 until the 27 at 18:00 UTC


261727Z 2618/2718 31008KT P6SM SKC
FM270200 VRB04KT P6SM SKC
KZBW FIR / North America



MET'MAP, your aeronautical weather chart ! - Copyright ORBIFLY December 2007 - Disclaimer

ORBIFLY MET'MAP TEAM :

Programming & Development : Alexandra Zaïnal
Concept & Development : Baudouin d'Aumeries
Co-Development & Prog : Marc-Olivier Méhu
Technical & hardware support : Manuel Goepfert

Contact : metmap@orbifly.com




SOURCES & CREDITS :

   NOAA